createdAt,value
2018-04-24T00:00:29.557Z,13.43
2018-04-24T00:02:56.944Z,13.47
2018-04-24T00:05:24.342Z,13.41
2018-04-24T00:07:51.731Z,13.32
2018-04-24T00:10:19.139Z,13.32
2018-04-24T00:12:46.565Z,13.26
2018-04-24T00:15:13.967Z,13.24
2018-04-24T00:17:41.380Z,13.13
2018-04-24T00:20:08.755Z,13.17
2018-04-24T00:22:36.146Z,13.17
2018-04-24T00:25:03.532Z,13.11
2018-04-24T00:27:30.930Z,13.09
2018-04-24T00:29:58.326Z,13.07
2018-04-24T00:32:25.734Z,13.00
2018-04-24T00:34:53.139Z,12.98
2018-04-24T00:37:20.558Z,12.96
2018-04-24T00:39:47.986Z,12.94
2018-04-24T00:42:15.391Z,12.88
2018-04-24T00:44:42.787Z,12.86
2018-04-24T00:47:10.172Z,12.77
2018-04-24T00:49:37.603Z,12.81
2018-04-24T00:52:05.006Z,12.73
2018-04-24T00:54:32.415Z,12.68
2018-04-24T00:56:59.822Z,12.55
2018-04-24T00:59:27.203Z,12.59
2018-04-24T01:01:54.596Z,12.53
2018-04-24T01:04:21.996Z,12.49
2018-04-24T01:06:49.440Z,12.49
2018-04-24T01:09:17.022Z,12.43
2018-04-24T01:11:44.411Z,12.40
2018-04-24T01:14:11.800Z,12.34
2018-04-24T01:16:39.223Z,12.29
2018-04-24T01:19:06.659Z,12.18
2018-04-24T01:21:34.043Z,12.18
2018-04-24T01:24:01.439Z,12.07
2018-04-24T01:26:28.842Z,12.07
2018-04-24T01:28:56.274Z,12.10
2018-04-24T01:31:23.643Z,12.07
2018-04-24T01:33:51.116Z,12.09
2018-04-24T01:36:18.533Z,12.09
2018-04-24T01:38:45.920Z,11.98
2018-04-24T01:41:13.304Z,12.07
2018-04-24T01:43:40.699Z,12.09
2018-04-24T01:46:08.112Z,12.05
2018-04-24T01:48:35.516Z,12.03
2018-04-24T01:51:02.903Z,12.07
2018-04-24T01:53:30.323Z,12.04
2018-04-24T01:55:57.710Z,12.02
2018-04-24T01:58:25.117Z,11.92
2018-04-24T02:00:52.499Z,11.88
2018-04-24T02:03:19.895Z,11.94
2018-04-24T02:05:47.287Z,11.85
2018-04-24T02:08:14.694Z,11.81
2018-04-24T02:10:42.082Z,11.82
2018-04-24T02:13:09.478Z,11.78
2018-04-24T02:15:36.875Z,11.73
2018-04-24T02:18:04.267Z,11.69
2018-04-24T02:20:31.662Z,11.65
2018-04-24T02:22:59.120Z,11.59
2018-04-24T02:25:26.511Z,11.61
2018-04-24T02:27:53.902Z,11.55
2018-04-24T02:30:21.303Z,11.46
2018-04-24T02:32:48.711Z,11.55
2018-04-24T02:35:16.130Z,11.53
2018-04-24T02:37:43.532Z,11.50
2018-04-24T02:40:10.928Z,11.50
2018-04-24T02:42:38.329Z,11.44
2018-04-24T02:45:05.743Z,11.53
2018-04-24T02:47:33.186Z,11.53
2018-04-24T02:50:00.593Z,11.53
2018-04-24T02:52:27.973Z,11.47
2018-04-24T02:54:55.365Z,11.50
2018-04-24T02:57:22.759Z,11.49
2018-04-24T02:59:50.192Z,11.45
2018-04-24T03:02:17.595Z,11.36
2018-04-24T03:04:44.991Z,11.41
2018-04-24T03:07:12.400Z,11.36
2018-04-24T03:09:39.782Z,11.34
2018-04-24T03:12:07.195Z,11.25
2018-04-24T03:14:34.573Z,11.23
2018-04-24T03:17:01.967Z,11.22
2018-04-24T03:19:29.366Z,11.20
2018-04-24T03:21:56.750Z,11.07
2018-04-24T03:24:24.142Z,11.12
2018-04-24T03:26:51.546Z,11.16
2018-04-24T03:29:18.942Z,11.16
2018-04-24T03:31:46.334Z,11.07
2018-04-24T03:34:13.735Z,11.12
2018-04-24T03:36:41.129Z,11.10
2018-04-24T03:39:08.523Z,11.15
2018-04-24T03:41:35.915Z,11.13
2018-04-24T03:44:03.308Z,11.10
2018-04-24T03:46:30.703Z,11.16
2018-04-24T03:48:58.091Z,11.15
2018-04-24T03:51:25.483Z,11.15
2018-04-24T03:53:52.887Z,11.13
2018-04-24T03:56:20.271Z,11.11
2018-04-24T03:58:47.655Z,11.12
2018-04-24T04:01:15.053Z,11.10
2018-04-24T04:03:42.435Z,11.15
2018-04-24T04:06:09.833Z,11.13
2018-04-24T04:08:37.218Z,11.15
2018-04-24T04:11:04.609Z,11.04
2018-04-24T04:13:32.039Z,10.91
2018-04-24T04:15:59.886Z,10.93
2018-04-24T04:18:38.923Z,10.92
2018-04-24T04:21:18.242Z,10.84
2018-04-24T04:23:57.517Z,10.91
2018-04-24T04:26:24.927Z,10.96
2018-04-24T04:28:52.323Z,10.98
2018-04-24T04:31:20.572Z,11.00
2018-04-24T04:33:47.993Z,10.99
2018-04-24T04:36:15.406Z,11.02
2018-04-24T04:38:42.784Z,11.06
2018-04-24T04:41:10.180Z,11.10
2018-04-24T04:43:37.566Z,11.13
2018-04-24T04:46:04.952Z,11.12
2018-04-24T04:48:32.355Z,11.11
2018-04-24T04:50:59.756Z,11.14
2018-04-24T04:53:27.775Z,11.19
2018-04-24T04:55:55.158Z,11.13
2018-04-24T04:58:22.899Z,11.21
2018-04-24T05:00:50.312Z,11.25
2018-04-24T05:03:17.719Z,11.31
2018-04-24T05:05:45.121Z,11.30
2018-04-24T05:08:12.517Z,11.31
2018-04-24T05:10:39.899Z,11.28
2018-04-24T05:13:07.287Z,11.41
2018-04-24T05:15:34.690Z,11.47
2018-04-24T05:18:02.075Z,11.55
2018-04-24T05:20:29.478Z,11.51
2018-04-24T05:22:56.858Z,11.60
2018-04-24T05:25:24.243Z,11.56
2018-04-24T05:27:51.671Z,11.73
2018-04-24T05:30:19.463Z,11.79
2018-04-24T05:32:46.849Z,11.81
2018-04-24T05:35:14.238Z,11.85
2018-04-24T05:37:41.636Z,11.87
2018-04-24T05:40:09.032Z,11.92
2018-04-24T05:42:36.433Z,12.01
2018-04-24T05:45:03.803Z,12.10
2018-04-24T05:47:31.198Z,12.09
2018-04-24T05:49:58.592Z,12.08
2018-04-24T05:52:26.057Z,12.09
2018-04-24T05:54:53.419Z,12.16
2018-04-24T05:57:20.850Z,12.25
2018-04-24T05:59:48.251Z,12.20
2018-04-24T06:02:15.646Z,12.23
2018-04-24T06:04:43.068Z,12.30
2018-04-24T06:07:10.459Z,12.38
2018-04-24T06:09:37.855Z,12.51
2018-04-24T06:12:05.242Z,12.56
2018-04-24T06:14:32.638Z,12.64
2018-04-24T06:17:00.043Z,12.81
2018-04-24T06:19:27.420Z,12.80
2018-04-24T06:21:54.819Z,12.74
2018-04-24T06:24:22.226Z,12.81
2018-04-24T06:26:49.609Z,13.01
2018-04-24T06:29:16.990Z,13.02
2018-04-24T06:31:44.403Z,13.01
2018-04-24T06:34:11.791Z,13.01
2018-04-24T06:36:39.196Z,13.15
2018-04-24T06:39:06.578Z,13.14
2018-04-24T06:41:33.975Z,13.22
2018-04-24T06:44:01.370Z,13.09
2018-04-24T06:46:28.783Z,13.29
2018-04-24T06:48:56.174Z,13.46
2018-04-24T06:51:23.588Z,13.40
2018-04-24T06:53:51.078Z,13.36
2018-04-24T06:56:18.471Z,13.56
2018-04-24T06:58:45.879Z,13.54
2018-04-24T07:01:13.283Z,13.65
2018-04-24T07:03:40.667Z,13.57
2018-04-24T07:06:08.047Z,13.78
2018-04-24T07:08:35.467Z,13.71
2018-04-24T07:11:02.867Z,13.85
2018-04-24T07:13:30.258Z,13.83
2018-04-24T07:15:57.643Z,14.05
2018-04-24T07:18:25.035Z,13.86
2018-04-24T07:20:52.424Z,13.94
2018-04-24T07:23:19.815Z,13.98
2018-04-24T07:25:47.226Z,14.13
2018-04-24T07:28:14.639Z,14.28
2018-04-24T07:30:42.020Z,14.32
2018-04-24T07:33:09.407Z,14.48
2018-04-24T07:35:36.799Z,14.33
2018-04-24T07:38:04.175Z,14.39
2018-04-24T07:40:31.574Z,14.38
2018-04-24T07:42:58.951Z,14.49
2018-04-24T07:45:26.532Z,14.43
2018-04-24T07:47:53.895Z,14.36
2018-04-24T07:50:21.287Z,14.52
2018-04-24T07:52:48.671Z,14.54
2018-04-24T07:55:16.071Z,14.62
2018-04-24T07:57:43.458Z,14.88
2018-04-24T08:00:10.850Z,14.83
2018-04-24T08:02:38.238Z,14.60
2018-04-24T08:05:05.647Z,14.64
2018-04-24T08:07:33.078Z,14.43
2018-04-24T08:10:00.459Z,14.42
2018-04-24T08:12:27.924Z,14.47
2018-04-24T08:14:55.306Z,14.54
2018-04-24T08:17:22.691Z,14.61
2018-04-24T08:19:50.071Z,14.70
2018-04-24T08:22:17.961Z,14.57
2018-04-24T08:24:45.346Z,14.53
2018-04-24T08:27:12.722Z,14.59
2018-04-24T08:29:40.110Z,14.54
2018-04-24T08:32:07.498Z,14.68
2018-04-24T08:34:34.883Z,14.79
2018-04-24T08:37:02.272Z,14.74
2018-04-24T08:39:29.662Z,14.88
2018-04-24T08:41:57.063Z,14.93
2018-04-24T08:44:24.463Z,14.75
2018-04-24T08:46:51.856Z,14.78
2018-04-24T08:49:19.241Z,14.80
2018-04-24T08:51:46.623Z,14.67
2018-04-24T08:54:14.018Z,14.54
2018-04-24T08:56:41.405Z,14.61
2018-04-24T08:59:08.795Z,14.78
2018-04-24T09:01:36.184Z,14.88
2018-04-24T09:04:03.555Z,14.99
2018-04-24T09:06:30.955Z,14.84
2018-04-24T09:08:58.343Z,14.91
2018-04-24T09:11:25.778Z,14.92
2018-04-24T09:13:53.147Z,14.89
2018-04-24T09:16:20.554Z,14.84
2018-04-24T09:18:47.939Z,14.87
2018-04-24T09:21:15.344Z,14.79
2018-04-24T09:23:42.744Z,14.77
2018-04-24T09:26:10.128Z,14.74
2018-04-24T09:28:37.669Z,14.76
2018-04-24T09:31:05.055Z,14.72
2018-04-24T09:33:32.567Z,14.72
2018-04-24T09:35:59.892Z,14.75
2018-04-24T09:38:27.298Z,14.85
2018-04-24T09:40:54.699Z,14.83
2018-04-24T09:43:22.095Z,14.89
2018-04-24T09:45:49.500Z,14.68
2018-04-24T09:48:16.910Z,14.73
2018-04-24T09:50:44.311Z,14.83
2018-04-24T09:53:11.742Z,14.89
2018-04-24T09:55:39.270Z,14.97
2018-04-24T09:58:06.781Z,14.95
2018-04-24T10:00:36.978Z,14.89
2018-04-24T10:03:04.379Z,14.73
2018-04-24T10:05:31.771Z,14.95
2018-04-24T10:07:59.183Z,15.28
2018-04-24T10:10:26.583Z,15.54
2018-04-24T10:12:53.984Z,15.53
2018-04-24T10:15:21.375Z,15.37
2018-04-24T10:17:48.754Z,15.45
2018-04-24T10:20:16.151Z,15.21
2018-04-24T10:22:43.547Z,15.20
2018-04-24T10:25:10.934Z,15.27
2018-04-24T10:27:38.376Z,15.25
2018-04-24T10:30:05.735Z,15.20
2018-04-24T10:32:33.136Z,15.41
2018-04-24T10:35:00.529Z,15.55
2018-04-24T10:37:28.005Z,15.65
2018-04-24T10:39:55.311Z,15.68
2018-04-24T10:42:23.058Z,15.39
2018-04-24T10:44:50.447Z,15.41
2018-04-24T10:47:17.854Z,15.61
2018-04-24T10:49:45.350Z,15.63
2018-04-24T10:52:12.769Z,15.83
2018-04-24T10:54:40.329Z,16.18
2018-04-24T10:57:07.718Z,16.47
2018-04-24T10:59:35.134Z,16.69
2018-04-24T11:02:02.700Z,16.87
2018-04-24T11:04:30.118Z,17.07
2018-04-24T11:06:57.527Z,17.17
2018-04-24T11:09:24.927Z,17.17
2018-04-24T11:11:52.373Z,17.17
2018-04-24T11:14:19.712Z,17.42
2018-04-24T11:16:47.121Z,17.77
2018-04-24T11:19:14.519Z,18.13
2018-04-24T11:21:41.922Z,18.15
2018-04-24T11:24:09.342Z,18.18
2018-04-24T11:26:36.758Z,18.34
2018-04-24T11:29:04.158Z,18.37
2018-04-24T11:31:31.798Z,18.25
2018-04-24T11:33:59.181Z,18.64
2018-04-24T11:36:26.562Z,18.39
2018-04-24T11:38:53.958Z,18.22
2018-04-24T11:41:21.401Z,18.47
2018-04-24T11:43:48.873Z,18.54
2018-04-24T11:46:16.171Z,18.11
2018-04-24T11:48:43.558Z,18.05
2018-04-24T11:51:10.955Z,17.90
2018-04-24T11:53:38.380Z,17.88
2018-04-24T11:56:05.799Z,17.95
2018-04-24T11:58:33.191Z,17.88
2018-04-24T12:01:00.590Z,18.15
2018-04-24T12:03:27.979Z,18.44
2018-04-24T12:05:55.375Z,18.62
2018-04-24T12:08:22.759Z,18.84
2018-04-24T12:10:50.147Z,18.83
2018-04-24T12:13:17.539Z,18.80
2018-04-24T12:15:44.975Z,18.59
2018-04-24T12:18:12.315Z,18.10
2018-04-24T12:20:39.711Z,17.98
2018-04-24T12:23:07.099Z,17.82
2018-04-24T12:25:34.495Z,17.86
2018-04-24T12:28:01.887Z,17.86
2018-04-24T12:30:29.277Z,17.92
2018-04-24T12:32:56.771Z,18.00
2018-04-24T12:35:24.178Z,18.02
2018-04-24T12:37:51.566Z,18.15
2018-04-24T12:40:18.955Z,18.23
2018-04-24T12:42:46.355Z,18.39
2018-04-24T12:45:13.750Z,18.47
2018-04-24T12:47:41.151Z,18.73
2018-04-24T12:50:08.594Z,18.73
2018-04-24T12:52:36.007Z,18.91
2018-04-24T12:55:03.412Z,18.94
2018-04-24T12:57:30.795Z,18.87
2018-04-24T12:59:58.191Z,18.76
2018-04-24T13:02:25.579Z,18.79
2018-04-24T13:04:52.996Z,18.78
2018-04-24T13:07:20.392Z,18.98
2018-04-24T13:09:47.835Z,18.73
2018-04-24T13:12:15.202Z,18.48
2018-04-24T13:14:42.599Z,18.43
2018-04-24T13:17:09.997Z,18.46
2018-04-24T13:19:37.404Z,18.33
2018-04-24T13:22:04.815Z,17.98
2018-04-24T13:24:32.230Z,18.07
2018-04-24T13:26:59.611Z,17.78
2018-04-24T13:29:27.020Z,18.00
2018-04-24T13:31:54.437Z,18.16
2018-04-24T13:34:21.834Z,18.46
2018-04-24T13:36:49.245Z,18.69
2018-04-24T13:39:16.646Z,18.56
2018-04-24T13:41:44.023Z,18.61
2018-04-24T13:44:11.417Z,18.42
2018-04-24T13:46:38.803Z,18.20
2018-04-24T13:49:06.210Z,18.61
2018-04-24T13:51:33.603Z,18.59
2018-04-24T13:54:00.999Z,18.50
2018-04-24T13:56:28.419Z,18.52
2018-04-24T13:58:55.919Z,18.72
2018-04-24T14:01:23.351Z,18.86
2018-04-24T14:03:50.735Z,18.90
2018-04-24T14:06:18.149Z,18.79
2018-04-24T14:08:45.514Z,18.87
2018-04-24T14:11:12.915Z,19.00
2018-04-24T14:13:40.307Z,19.08
2018-04-24T14:16:07.755Z,19.27
2018-04-24T14:18:35.198Z,19.33
2018-04-24T14:21:02.599Z,19.26
2018-04-24T14:23:29.987Z,19.46
2018-04-24T14:25:57.855Z,19.78
2018-04-24T14:28:25.242Z,20.05
2018-04-24T14:30:52.663Z,20.01
2018-04-24T14:33:20.082Z,19.71
2018-04-24T14:35:47.471Z,19.26
2018-04-24T14:38:14.867Z,19.36
2018-04-24T14:40:42.246Z,19.57
2018-04-24T14:43:09.723Z,19.30
2018-04-24T14:45:37.123Z,19.29
2018-04-24T14:48:04.534Z,19.40
2018-04-24T14:50:31.963Z,19.60
2018-04-24T14:52:59.364Z,19.47
2018-04-24T14:55:26.747Z,19.46
2018-04-24T14:57:54.131Z,19.33
2018-04-24T15:00:21.522Z,18.91
2018-04-24T15:02:48.910Z,19.22
2018-04-24T15:05:16.298Z,19.40
2018-04-24T15:07:43.687Z,19.60
2018-04-24T15:10:11.149Z,19.76
2018-04-24T15:12:38.530Z,19.62
2018-04-24T15:15:05.941Z,19.54
2018-04-24T15:17:33.319Z,19.58
2018-04-24T15:20:00.710Z,19.67
2018-04-24T15:22:28.103Z,19.69
2018-04-24T15:24:55.510Z,19.64
2018-04-24T15:27:22.895Z,19.39
2018-04-24T15:29:50.317Z,19.30
2018-04-24T15:32:17.748Z,19.15
2018-04-24T15:34:45.145Z,19.18
2018-04-24T15:37:12.579Z,18.95
2018-04-24T15:39:39.968Z,18.99
2018-04-24T15:42:07.370Z,18.65
2018-04-24T15:44:34.858Z,18.53
2018-04-24T15:47:02.247Z,18.60
2018-04-24T15:49:29.646Z,18.78
2018-04-24T15:51:57.031Z,18.88
2018-04-24T15:54:24.427Z,18.78
2018-04-24T15:56:51.811Z,19.03
2018-04-24T15:59:19.199Z,18.98
2018-04-24T16:01:46.589Z,19.03
2018-04-24T16:04:13.979Z,18.94
2018-04-24T16:06:41.380Z,18.97
2018-04-24T16:09:08.766Z,19.10
2018-04-24T16:11:36.171Z,18.98
2018-04-24T16:14:03.552Z,18.49
2018-04-24T16:16:30.943Z,18.47
2018-04-24T16:18:58.334Z,18.74
2018-04-24T16:21:25.723Z,18.96
2018-04-24T16:23:53.111Z,18.91
2018-04-24T16:26:20.503Z,18.75
2018-04-24T16:28:47.890Z,18.60
2018-04-24T16:31:15.297Z,18.37
2018-04-24T16:33:42.679Z,18.42
2018-04-24T16:36:10.067Z,18.55
2018-04-24T16:38:37.463Z,18.54
2018-04-24T16:41:04.861Z,18.64
2018-04-24T16:43:32.247Z,18.67
2018-04-24T16:45:59.635Z,18.67
2018-04-24T16:48:27.179Z,18.72
2018-04-24T16:50:54.572Z,18.77
2018-04-24T16:53:21.968Z,18.75
2018-04-24T16:55:49.354Z,18.84
2018-04-24T16:58:16.792Z,18.76
2018-04-24T17:00:44.234Z,18.62
2018-04-24T17:03:11.567Z,18.66
2018-04-24T17:05:39.049Z,18.73
2018-04-24T17:08:06.436Z,18.68
2018-04-24T17:10:33.827Z,18.67
2018-04-24T17:13:01.218Z,18.65
2018-04-24T17:15:28.610Z,18.63
2018-04-24T17:17:56.004Z,18.61
2018-04-24T17:20:23.399Z,18.47
2018-04-24T17:22:50.794Z,18.44
2018-04-24T17:25:18.189Z,18.43
2018-04-24T17:27:45.575Z,18.44
2018-04-24T17:30:12.963Z,18.35
2018-04-24T17:32:40.369Z,18.33
2018-04-24T17:35:07.763Z,18.26
2018-04-24T17:37:35.159Z,18.20
2018-04-24T17:40:02.560Z,18.19
2018-04-24T17:42:30.018Z,18.24
2018-04-24T17:44:57.432Z,18.20
2018-04-24T17:47:24.824Z,18.22
2018-04-24T17:49:52.529Z,18.22
2018-04-24T17:52:19.911Z,18.22
2018-04-24T17:54:47.294Z,18.23
2018-04-24T17:57:14.858Z,18.21
2018-04-24T17:59:42.235Z,18.17
2018-04-24T18:02:09.673Z,18.13
2018-04-24T18:04:37.071Z,18.06
2018-04-24T18:07:04.475Z,17.92
2018-04-24T18:09:31.855Z,17.82
2018-04-24T18:11:59.894Z,17.74
2018-04-24T18:14:27.291Z,17.65
2018-04-24T18:16:54.891Z,17.57
2018-04-24T18:19:22.278Z,17.49
2018-04-24T18:21:49.666Z,17.43
2018-04-24T18:24:17.067Z,17.37
2018-04-24T18:26:44.455Z,17.34
2018-04-24T18:29:11.834Z,17.33
2018-04-24T18:31:39.259Z,17.31
2018-04-24T18:34:06.652Z,17.26
2018-04-24T18:36:34.040Z,17.26
2018-04-24T18:39:01.419Z,17.24
2018-04-24T18:41:28.810Z,17.28
2018-04-24T18:43:56.202Z,17.27
2018-04-24T18:46:23.579Z,17.34
2018-04-24T18:48:50.979Z,17.28
2018-04-24T18:51:18.371Z,17.27
2018-04-24T18:53:46.127Z,17.18
2018-04-24T18:56:13.522Z,17.13
2018-04-24T18:58:40.923Z,17.21
2018-04-24T19:01:08.335Z,16.96
2018-04-24T19:03:35.718Z,16.97
2018-04-24T19:06:03.132Z,17.09
2018-04-24T19:08:30.511Z,17.07
2018-04-24T19:10:57.890Z,17.07
2018-04-24T19:13:25.291Z,17.09
2018-04-24T19:15:52.670Z,17.11
2018-04-24T19:21:19.568Z,17.04
2018-04-24T19:23:47.034Z,17.06
2018-04-24T19:26:14.342Z,17.02
2018-04-24T19:28:41.754Z,17.02
2018-04-24T19:34:14.202Z,17.00
2018-04-24T19:36:41.598Z,17.01
2018-04-24T19:39:14.515Z,16.98
2018-04-24T19:41:46.831Z,16.96
2018-04-24T19:44:14.211Z,16.94
2018-04-24T19:46:41.614Z,16.93
2018-04-24T19:49:14.645Z,16.90
2018-04-24T19:51:41.970Z,16.90
2018-04-24T19:54:09.351Z,16.88
2018-04-24T19:56:36.747Z,16.90
2018-04-24T19:59:04.131Z,16.94
2018-04-24T20:01:31.514Z,16.96
2018-04-24T20:06:32.796Z,16.89
2018-04-24T20:09:00.184Z,16.81
2018-04-24T20:11:27.627Z,16.82
2018-04-24T20:13:55.012Z,16.76
2018-04-24T20:16:22.387Z,16.75
2018-04-24T20:18:49.766Z,16.69
2018-04-24T20:21:17.161Z,16.71
2018-04-24T20:23:44.541Z,16.70
2018-04-24T20:26:11.927Z,16.67
2018-04-24T20:28:39.320Z,16.61
2018-04-24T20:31:06.714Z,16.63
2018-04-24T20:33:34.099Z,16.66
2018-04-24T20:36:01.480Z,16.67
2018-04-24T20:38:28.875Z,16.65
2018-04-24T20:40:56.259Z,16.69
2018-04-24T20:43:23.648Z,16.71
2018-04-24T20:45:51.031Z,16.66
2018-04-24T20:48:18.426Z,16.66
2018-04-24T20:50:45.821Z,16.65
2018-04-24T20:53:13.239Z,16.67
2018-04-24T20:55:40.600Z,16.65
2018-04-24T20:58:07.980Z,16.66
2018-04-24T21:00:35.372Z,16.66
2018-04-24T21:03:02.755Z,16.67
2018-04-24T21:05:30.167Z,16.66
2018-04-24T21:07:57.550Z,16.66
2018-04-24T21:10:24.931Z,16.63
2018-04-24T21:12:52.323Z,16.60
2018-04-24T21:15:19.707Z,16.61
2018-04-24T21:17:47.100Z,16.60
2018-04-24T21:20:14.478Z,16.58
2018-04-24T21:22:41.879Z,16.62
2018-04-24T21:25:09.258Z,16.58
2018-04-24T21:27:36.646Z,16.54
2018-04-24T21:30:04.078Z,16.39
2018-04-24T21:32:31.463Z,16.44
2018-04-24T21:34:58.854Z,16.44
2018-04-24T21:37:26.239Z,16.42
2018-04-24T21:39:53.631Z,16.42
2018-04-24T21:42:21.023Z,16.44
2018-04-24T21:44:48.446Z,16.46
2018-04-24T21:47:15.819Z,16.44
2018-04-24T21:49:43.206Z,16.45
2018-04-24T21:52:10.615Z,16.48
2018-04-24T21:54:37.994Z,16.43
2018-04-24T21:57:05.377Z,16.32
2018-04-24T21:59:32.768Z,16.37
2018-04-24T22:02:00.151Z,16.30
2018-04-24T22:04:27.542Z,16.33
2018-04-24T22:06:54.937Z,16.28
2018-04-24T22:09:22.343Z,16.33
2018-04-24T22:11:49.756Z,16.28
2018-04-24T22:14:17.150Z,16.18
2018-04-24T22:16:44.526Z,16.18
2018-04-24T22:19:11.936Z,16.18
2018-04-24T22:21:39.378Z,16.17
2018-04-24T22:24:06.770Z,16.15
2018-04-24T22:26:34.142Z,16.13
2018-04-24T22:29:01.533Z,16.04
2018-04-24T22:31:28.936Z,16.06
2018-04-24T22:33:56.388Z,16.07
2018-04-24T22:36:23.780Z,16.05
2018-04-24T22:38:51.176Z,16.08
2018-04-24T22:41:18.579Z,16.08
2018-04-24T22:43:46.001Z,16.12
2018-04-24T22:46:13.375Z,16.16
2018-04-24T22:48:40.802Z,16.19
2018-04-24T22:51:08.175Z,16.17
2018-04-24T22:53:35.595Z,16.17
2018-04-24T22:56:03.016Z,16.21
2018-04-24T22:58:30.392Z,16.19
2018-04-24T23:00:57.809Z,16.20
2018-04-24T23:03:25.208Z,16.23
2018-04-24T23:05:52.646Z,16.25
2018-04-24T23:08:20.048Z,16.23
2018-04-24T23:10:59.108Z,16.22
2018-04-24T23:13:38.293Z,16.29
2018-04-24T23:16:17.378Z,16.26
2018-04-24T23:18:56.518Z,16.22
2018-04-24T23:21:23.399Z,16.24
2018-04-24T23:23:50.767Z,16.20
2018-04-24T23:26:18.304Z,16.25
2018-04-24T23:28:45.691Z,16.21
2018-04-24T23:31:13.107Z,16.23
2018-04-24T23:33:40.500Z,16.20
2018-04-24T23:36:07.879Z,16.17
2018-04-24T23:38:35.310Z,16.15
2018-04-24T23:41:02.700Z,16.11
2018-04-24T23:43:30.159Z,16.18
2018-04-24T23:45:57.538Z,16.10
2018-04-24T23:48:24.923Z,16.15
2018-04-24T23:50:52.308Z,16.08
2018-04-24T23:53:19.700Z,16.04
2018-04-24T23:55:47.091Z,16.08
2018-04-24T23:58:14.483Z,16.09
